Terminal Aerodrome Forecast
Issued by NWS Charleston, WV

Current Version | Previous Version | Graphics & Text | Print | Product List | Glossary On
Versions: 1 2 3 4 5 6 7 8 9 10 11 12 13 14 15 16 17 18 19 20 21 22 23 24 25
000
FTUS41 KRLX 301700
TAFBKW
TAF
KBKW 301728Z 3018/3118 20007KT P6SM SCT045
     FM302000 20008KT P6SM BKN040
     FM310200 18006KT P6SM BKN035 BKN100
     FM311100 22004KT 6SM -SHRA BR BKN050 OVC100
     FM311500 00000KT 4SM -TSRA BR BKN035CB=

USA.gov is the U.S. government's official web portal to all federal, state and local government web resources and services.